KBYL

Williamsburg-Whitley County Airport

Williamsburg, Kentucky, USA
METAR KBYL 191515Z AUTO 00000KT 10SM FEW016 23/22 A3001 RMK AO1
Observed Flight Rules
Aug-19 @ 15:15 UTC (24 minutes ago) Visual Flight Rules
Visibility Clouds
10 miles
  • Few at 1,600' AGL
Temperatures Readings
Current 23°C / 73°F
Dewpoint 22°C / 72°F
Humidity 94%
Altimeter 30.01" Hg
Pressure 1016 hPa
Elevation 359
METAR KBYL 191515Z AUTO 00000KT 10SM FEW016 23/22 A3001 RMK AO1
Observed Flight Rules
Aug-19 @ 15:15 UTC
(24 minutes ago)
VFR
Clouds
  • Few at 1,600' AGL
Temperature Dewpoint
23°C / 73°F 22°C / 72°F
Humidity Altimeter Pressure
94% 30.01" Hg 1016 hPa